Wetterstation Vordersexau
Wetterdaten: Woche 16.01.23 - 22.01.23 (KW3)
Datum Zeit Temp. A. Feuchte A. Luftdruck Regen Wind Richtung Taupunkt Windchill Windben
16.01.2023 00:00 6,0 C 66 % 1002,8 hPa 0,0 l/m 8,6 km/h (2 Bft) SW 0,1 C 4,2 C 14,8 km/h (3 Bft)
16.01.2023 01:00 5,8 C 67 % 1001,6 hPa 0,0 l/m 9,7 km/h (2 Bft) S-SW 0,2 C 3,2 C 13,3 km/h (3 Bft)
16.01.2023 02:00 6,1 C 67 % 1000,7 hPa 0,0 l/m 7,2 km/h (2 Bft) W 0,4 C 5,4 C 9,7 km/h (2 Bft)
16.01.2023 03:00 6,2 C 68 % 998,5 hPa 0,0 l/m 6,1 km/h (2 Bft) S-SW 0,7 C 6,2 C 11,2 km/h (2 Bft)
16.01.2023 04:00 6,6 C 65 % 996,6 hPa 0,0 l/m 9,7 km/h (2 Bft) S 0,5 C 4,0 C 14,8 km/h (3 Bft)
16.01.2023 05:00 6,5 C 63 % 994,4 hPa 0,0 l/m 12,2 km/h (2 Bft) S-SO -0,0 C 2,4 C 17,3 km/h (3 Bft)
16.01.2023 06:00 5,3 C 65 % 992,5 hPa 0,0 l/m 7,2 km/h (2 Bft) S-SO -0,7 C 4,6 C 13,3 km/h (3 Bft)
16.01.2023 07:00 6,5 C 59 % 990,4 hPa 0,0 l/m 9,7 km/h (2 Bft) S-SO -0,9 C 3,9 C 14,8 km/h (3 Bft)
16.01.2023 08:00 6,8 C 57 % 988,9 hPa 0,0 l/m 8,6 km/h (2 Bft) SW -1,1 C 5,0 C 11,2 km/h (2 Bft)
16.01.2023 09:00 8,2 C 51 % 988,1 hPa 0,0 l/m 15,8 km/h (3 Bft) S-SO -1,3 C 2,6 C 25,6 km/h (4 Bft)
16.01.2023 10:00 6,0 C 70 % 988,2 hPa 0,0 l/m 8,6 km/h (2 Bft) S 1,0 C 4,2 C 14,8 km/h (3 Bft)
16.01.2023 11:00 5,4 C 80 % 987,4 hPa 0,3 l/m 17,3 km/h (3 Bft) S-SW 2,2 C -1,5 C 25,6 km/h (4 Bft)
16.01.2023 12:00 6,0 C 77 % 985,8 hPa 0,3 l/m 12,2 km/h (2 Bft) W-SW 2,3 C 1,8 C 14,8 km/h (3 Bft)
16.01.2023 13:00 7,6 C 69 % 984,3 hPa 0,0 l/m 22,0 km/h (4 Bft) S-SO 2,3 C -0,5 C 33,1 km/h (5 Bft)
16.01.2023 14:00 6,3 C 77 % 983,5 hPa 0,3 l/m 17,3 km/h (3 Bft) SW 2,6 C -0,4 C 25,6 km/h (4 Bft)
16.01.2023 15:00 7,0 C 74 % 983,1 hPa 0,0 l/m 24,5 km/h (4 Bft) W 2,7 C -2,1 C 35,6 km/h (5 Bft)
16.01.2023 16:00 5,8 C 82 % 983,3 hPa 0,3 l/m 24,5 km/h (4 Bft) W 3,0 C -3,7 C 40,3 km/h (6 Bft)
16.01.2023 17:00 5,3 C 83 % 984,5 hPa 0,0 l/m 22,0 km/h (4 Bft) W-SW 2,7 C -3,5 C 33,1 km/h (5 Bft)
16.01.2023 18:00 5,4 C 78 % 985,4 hPa 0,0 l/m 20,9 km/h (4 Bft) W-SW 1,9 C -3,0 C 28,1 km/h (4 Bft)
16.01.2023 19:00 5,7 C 76 % 985,9 hPa 0,0 l/m 7,2 km/h (2 Bft) W-SW 1,8 C 5,0 C 14,8 km/h (3 Bft)
16.01.2023 20:00 4,4 C 79 % 986,0 hPa 0,0 l/m 15,8 km/h (3 Bft) SW 1,1 C -2,1 C 24,5 km/h (4 Bft)
16.01.2023 21:00 4,0 C 82 % 986,6 hPa 0,0 l/m 18,4 km/h (3 Bft) W-SW 1,2 C -3,8 C 28,1 km/h (4 Bft)
16.01.2023 22:00 3,9 C 83 % 986,6 hPa 0,0 l/m 13,3 km/h (3 Bft) W 1,3 C -1,3 C 24,5 km/h (4 Bft)
16.01.2023 23:00 4,1 C 81 % 986,7 hPa 0,0 l/m 14,8 km/h (3 Bft) W-SW 1,1 C -1,9 C 18,4 km/h (3 Bft)
17.01.2023 00:00 3,4 C 87 % 987,2 hPa 0,3 l/m 9,7 km/h (2 Bft) SW 1,4 C 0,5 C 13,3 km/h (3 Bft)
17.01.2023 01:00 3,6 C 82 % 987,2 hPa 0,0 l/m 9,7 km/h (2 Bft) S-SW 0,8 C 0,8 C 14,8 km/h (3 Bft)
17.01.2023 02:00 3,1 C 84 % 987,2 hPa 0,0 l/m 13,3 km/h (3 Bft) S-SW 0,7 C -2,2 C 18,4 km/h (3 Bft)
17.01.2023 03:00 3,4 C 80 % 987,3 hPa 0,0 l/m 8,6 km/h (2 Bft) S 0,3 C 1,4 C 9,7 km/h (2 Bft)
17.01.2023 04:00 3,5 C 80 % 986,6 hPa 0,0 l/m 6,1 km/h (2 Bft) SW 0,4 C 3,5 C 9,7 km/h (2 Bft)
17.01.2023 05:00 3,7 C 79 % 986,4 hPa 0,0 l/m 6,1 km/h (2 Bft) N 0,4 C 3,7 C 9,7 km/h (2 Bft)
17.01.2023 06:00 2,4 C 82 % 985,4 hPa 0,0 l/m 0,0 km/h (0 Bft) W-NW -0,4 C 2,4 C 2,5 km/h (1 Bft)
17.01.2023 07:00 0,4 C 90 % 984,8 hPa 0,0 l/m 2,5 km/h (1 Bft) N -1,0 C 0,4 C 3,6 km/h (1 Bft)
17.01.2023 08:00 0,0 C 92 % 984,2 hPa 0,0 l/m 0,0 km/h (0 Bft) N -1,1 C 0,0 C 0,0 km/h (0 Bft)
17.01.2023 09:00 0,7 C 89 % 983,9 hPa 0,0 l/m 0,0 km/h (0 Bft) O-SO -0,9 C 0,7 C 2,5 km/h (1 Bft)
17.01.2023 10:00 1,6 C 85 % 983,5 hPa 0,0 l/m 1,1 km/h (1 Bft) O-NO -0,6 C 1,6 C 2,5 km/h (1 Bft)
17.01.2023 11:00 4,5 C 74 % 983,1 hPa 0,0 l/m 1,1 km/h (1 Bft) N-NO 0,3 C 4,5 C 3,6 km/h (1 Bft)
17.01.2023 12:00 4,7 C 78 % 982,1 hPa 0,0 l/m 3,6 km/h (1 Bft) NW 1,2 C 4,7 C 7,2 km/h (2 Bft)
17.01.2023 13:00 4,4 C 79 % 981,2 hPa 0,0 l/m 2,5 km/h (1 Bft) W 1,1 C 4,4 C 3,6 km/h (1 Bft)
17.01.2023 14:00 4,8 C 78 % 980,7 hPa 0,0 l/m 1,1 km/h (1 Bft) W-NW 1,3 C 4,8 C 2,5 km/h (1 Bft)
17.01.2023 15:00 4,1 C 85 % 981,0 hPa 0,0 l/m 1,1 km/h (1 Bft) SW 1,8 C 4,1 C 3,6 km/h (1 Bft)
17.01.2023 16:00 3,0 C 83 % 981,3 hPa 0,0 l/m 1,1 km/h (1 Bft) N 0,4 C 3,0 C 2,5 km/h (1 Bft)
17.01.2023 17:00 2,0 C 91 % 981,5 hPa 0,3 l/m 0,0 km/h (0 Bft) N 0,7 C 2,0 C 2,5 km/h (1 Bft)
17.01.2023 18:00 1,7 C 94 % 981,5 hPa 0,3 l/m 0,0 km/h (0 Bft) W-SW 0,8 C 1,7 C 0,0 km/h (0 Bft)
17.01.2023 19:00 1,5 C 96 % 982,0 hPa 0,0 l/m 3,6 km/h (1 Bft) W 0,9 C 1,5 C 6,1 km/h (2 Bft)
17.01.2023 20:00 1,2 C 97 % 982,2 hPa 0,0 l/m 2,5 km/h (1 Bft) N 0,8 C 1,2 C 3,6 km/h (1 Bft)
17.01.2023 21:00 1,4 C 98 % 982,4 hPa 0,0 l/m 0,0 km/h (0 Bft) N 1,1 C 1,4 C 0,0 km/h (0 Bft)
17.01.2023 22:00 1,4 C 98 % 982,5 hPa 0,3 l/m 0,0 km/h (0 Bft) N 1,1 C 1,4 C 0,0 km/h (0 Bft)
17.01.2023 23:00 1,5 C 98 % 982,9 hPa 0,0 l/m 0,0 km/h (0 Bft) W 1,2 C 1,5 C 0,0 km/h (0 Bft)
18.01.2023 00:00 1,8 C 95 % 982,9 hPa 0,0 l/m 3,6 km/h (1 Bft) W 1,1 C 1,8 C 6,1 km/h (2 Bft)
18.01.2023 01:00 1,5 C 95 % 983,5 hPa 0,0 l/m 1,1 km/h (1 Bft) W 0,8 C 1,5 C 3,6 km/h (1 Bft)
18.01.2023 02:00 1,2 C 97 % 984,1 hPa 0,0 l/m 3,6 km/h (1 Bft) W 0,8 C 1,2 C 6,1 km/h (2 Bft)
18.01.2023 03:00 0,3 C 98 % 984,8 hPa 0,0 l/m 2,5 km/h (1 Bft) W 0,0 C 0,3 C 3,6 km/h (1 Bft)
18.01.2023 04:00 0,1 C 99 % 985,4 hPa 0,0 l/m 1,1 km/h (1 Bft) W -0,0 C 0,1 C 3,6 km/h (1 Bft)
18.01.2023 05:00 0,1 C 99 % 986,5 hPa 0,0 l/m 1,1 km/h (1 Bft) N -0,0 C 0,1 C 2,5 km/h (1 Bft)
18.01.2023 06:00 0,1 C 99 % 987,3 hPa 0,0 l/m 0,0 km/h (0 Bft) N -0,0 C 0,1 C 0,0 km/h (0 Bft)
18.01.2023 07:00 0,1 C 99 % 988,4 hPa 0,0 l/m 0,0 km/h (0 Bft) N -0,0 C 0,1 C 0,0 km/h (0 Bft)
18.01.2023 08:00 0,0 C 99 % 989,6 hPa 0,0 l/m 0,0 km/h (0 Bft) N -0,1 C 0,0 C 0,0 km/h (0 Bft)
18.01.2023 09:00 0,0 C 99 % 990,7 hPa 0,0 l/m 0,0 km/h (0 Bft) W -0,1 C 0,0 C 0,0 km/h (0 Bft)
18.01.2023 10:00 -0,1 C 99 % 991,8 hPa 0,0 l/m 1,1 km/h (1 Bft) N -0,2 C -0,1 C 2,5 km/h (1 Bft)
18.01.2023 11:00 0,8 C 96 % 993,0 hPa 0,0 l/m 0,0 km/h (0 Bft) S-SO 0,2 C 0,8 C 0,0 km/h (0 Bft)
18.01.2023 12:00 1,2 C 89 % 993,6 hPa 0,6 l/m 1,1 km/h (1 Bft) N -0,4 C 1,2 C 2,5 km/h (1 Bft)
18.01.2023 13:00 2,4 C 83 % 993,8 hPa 0,9 l/m 0,0 km/h (0 Bft) N -0,2 C 2,4 C 0,0 km/h (0 Bft)
18.01.2023 14:00 2,0 C 85 % 994,7 hPa 1,5 l/m 0,0 km/h (0 Bft) N -0,3 C 2,0 C 2,5 km/h (1 Bft)
18.01.2023 15:00 1,7 C 89 % 995,6 hPa 0,3 l/m 0,0 km/h (0 Bft) N 0,1 C 1,7 C 0,0 km/h (0 Bft)
18.01.2023 16:00 1,4 C 91 % 996,7 hPa 0,0 l/m 0,0 km/h (0 Bft) N 0,1 C 1,4 C 0,0 km/h (0 Bft)
18.01.2023 17:00 0,4 C 95 % 997,5 hPa 0,0 l/m 0,0 km/h (0 Bft) N -0,3 C 0,4 C 0,0 km/h (0 Bft)
18.01.2023 18:00 -0,3 C 96 % 998,6 hPa 0,0 l/m 0,0 km/h (0 Bft) N -0,9 C -0,3 C 0,0 km/h (0 Bft)
18.01.2023 19:00 -0,9 C 97 % 999,6 hPa 0,0 l/m 0,0 km/h (0 Bft) N -1,3 C -0,9 C 2,5 km/h (1 Bft)
18.01.2023 20:00 -1,0 C 98 % 1000,8 hPa 0,0 l/m 0,0 km/h (0 Bft) N -1,3 C -1,0 C 0,0 km/h (0 Bft)
18.01.2023 21:00 -1,2 C 98 % 1001,5 hPa 0,0 l/m 0,0 km/h (0 Bft) N -1,5 C -1,2 C 0,0 km/h (0 Bft)
18.01.2023 22:00 -1,4 C 98 % 1002,1 hPa 0,0 l/m 0,0 km/h (0 Bft) N -1,7 C -1,4 C 0,0 km/h (0 Bft)
18.01.2023 23:00 -1,8 C 98 % 1002,5 hPa 0,0 l/m 0,0 km/h (0 Bft) N -2,1 C -1,8 C 0,0 km/h (0 Bft)
19.01.2023 00:00 -2,8 C 98 % 1002,9 hPa 0,0 l/m 0,0 km/h (0 Bft) N -3,1 C -2,8 C 0,0 km/h (0 Bft)
19.01.2023 01:00 -2,5 C 98 % 1003,3 hPa 0,0 l/m 0,0 km/h (0 Bft) N -2,8 C -2,5 C 0,0 km/h (0 Bft)
19.01.2023 02:00 -2,7 C 98 % 1003,6 hPa 0,0 l/m 0,0 km/h (0 Bft) N -3,0 C -2,7 C 2,5 km/h (1 Bft)
19.01.2023 03:00 -2,2 C 97 % 1004,0 hPa 0,0 l/m 0,0 km/h (0 Bft) N -2,6 C -2,2 C 2,5 km/h (1 Bft)
19.01.2023 04:00 -2,5 C 97 % 1003,9 hPa 0,0 l/m 0,0 km/h (0 Bft) N -2,9 C -2,5 C 0,0 km/h (0 Bft)
19.01.2023 05:00 -3,3 C 96 % 1004,1 hPa 0,0 l/m 0,0 km/h (0 Bft) N -3,8 C -3,3 C 2,5 km/h (1 Bft)
19.01.2023 06:00 -3,5 C 96 % 1004,2 hPa 0,0 l/m 0,0 km/h (0 Bft) N -4,0 C -3,5 C 0,0 km/h (0 Bft)
19.01.2023 07:00 -3,3 C 96 % 1004,9 hPa 0,0 l/m 0,0 km/h (0 Bft) O-SO -3,8 C -3,3 C 0,0 km/h (0 Bft)
19.01.2023 08:00 -2,4 C 95 % 1005,0 hPa 0,0 l/m 1,1 km/h (1 Bft) N -3,1 C -2,4 C 2,5 km/h (1 Bft)
19.01.2023 09:00 -1,9 C 95 % 1005,3 hPa 0,0 l/m 0,0 km/h (0 Bft) SO -2,6 C -1,9 C 2,5 km/h (1 Bft)
19.01.2023 10:00 -0,4 C 88 % 1005,7 hPa 0,0 l/m 3,6 km/h (1 Bft) W -2,1 C -0,4 C 6,1 km/h (2 Bft)
19.01.2023 11:00 0,8 C 84 % 1005,8 hPa 0,0 l/m 1,1 km/h (1 Bft) W-SW -1,6 C 0,8 C 3,6 km/h (1 Bft)
19.01.2023 12:00 0,9 C 82 % 1005,6 hPa 0,0 l/m 6,1 km/h (2 Bft) W-SW -1,8 C 0,9 C 9,7 km/h (2 Bft)
19.01.2023 13:00 1,8 C 82 % 1005,1 hPa 0,0 l/m 6,1 km/h (2 Bft) S-SW -0,9 C 1,8 C 9,7 km/h (2 Bft)
19.01.2023 14:00 1,8 C 83 % 1005,1 hPa 0,0 l/m 5,0 km/h (1 Bft) W -0,8 C 1,8 C 6,1 km/h (2 Bft)
19.01.2023 15:00 1,7 C 83 % 1005,0 hPa 0,0 l/m 5,0 km/h (1 Bft) W-SW -0,9 C 1,7 C 7,2 km/h (2 Bft)
19.01.2023 16:00 1,3 C 82 % 1005,0 hPa 0,0 l/m 5,0 km/h (1 Bft) N -1,4 C 1,3 C 6,1 km/h (2 Bft)
19.01.2023 17:00 1,2 C 81 % 1005,1 hPa 0,0 l/m 0,0 km/h (0 Bft) N -1,7 C 1,2 C 2,5 km/h (1 Bft)
19.01.2023 18:00 0,3 C 90 % 1005,1 hPa 0,0 l/m 0,0 km/h (0 Bft) N -1,1 C 0,3 C 0,0 km/h (0 Bft)
19.01.2023 19:00 -0,1 C 92 % 1005,2 hPa 0,0 l/m 0,0 km/h (0 Bft) N -1,2 C -0,1 C 0,0 km/h (0 Bft)
19.01.2023 20:00 -0,3 C 93 % 1004,8 hPa 0,0 l/m 0,0 km/h (0 Bft) N -1,3 C -0,3 C 0,0 km/h (0 Bft)
19.01.2023 21:00 -0,2 C 93 % 1005,1 hPa 0,0 l/m 0,0 km/h (0 Bft) N -1,2 C -0,2 C 0,0 km/h (0 Bft)
19.01.2023 22:00 -0,3 C 93 % 1005,4 hPa 0,0 l/m 0,0 km/h (0 Bft) N -1,3 C -0,3 C 0,0 km/h (0 Bft)
19.01.2023 23:00 -0,2 C 93 % 1006,0 hPa 0,0 l/m 0,0 km/h (0 Bft) N -1,2 C -0,2 C 0,0 km/h (0 Bft)
20.01.2023 00:00 -0,3 C 94 % 1006,2 hPa 0,0 l/m 0,0 km/h (0 Bft) W-SW -1,1 C -0,3 C 0,0 km/h (0 Bft)
20.01.2023 01:00 -0,3 C 94 % 1006,5 hPa 0,0 l/m 1,1 km/h (1 Bft) N -1,1 C -0,3 C 2,5 km/h (1 Bft)
20.01.2023 02:00 -0,5 C 94 % 1007,1 hPa 0,0 l/m 0,0 km/h (0 Bft) N -1,3 C -0,5 C 0,0 km/h (0 Bft)
20.01.2023 03:00 -0,6 C 95 % 1007,8 hPa 0,0 l/m 0,0 km/h (0 Bft) N -1,3 C -0,6 C 0,0 km/h (0 Bft)
20.01.2023 04:00 -0,7 C 93 % 1008,3 hPa 0,0 l/m 0,0 km/h (0 Bft) SO -1,7 C -0,7 C 0,0 km/h (0 Bft)
20.01.2023 05:00 -0,7 C 93 % 1008,8 hPa 0,0 l/m 2,5 km/h (1 Bft) N -1,7 C -0,7 C 3,6 km/h (1 Bft)
20.01.2023 06:00 -1,2 C 92 % 1009,8 hPa 0,0 l/m 0,0 km/h (0 Bft) SO -2,3 C -1,2 C 0,0 km/h (0 Bft)
20.01.2023 07:00 -2,1 C 94 % 1010,5 hPa 0,0 l/m 2,5 km/h (1 Bft) N -2,9 C -2,1 C 3,6 km/h (1 Bft)
20.01.2023 08:00 -2,5 C 95 % 1011,4 hPa 0,0 l/m 0,0 km/h (0 Bft) N -3,2 C -2,5 C 0,0 km/h (0 Bft)
20.01.2023 09:00 -1,7 C 94 % 1012,2 hPa 0,0 l/m 0,0 km/h (0 Bft) N -2,5 C -1,7 C 2,5 km/h (1 Bft)
20.01.2023 10:00 -0,7 C 93 % 1012,8 hPa 0,0 l/m 0,0 km/h (0 Bft) N -1,7 C -0,7 C 0,0 km/h (0 Bft)
20.01.2023 11:00 0,2 C 84 % 1013,4 hPa 0,0 l/m 0,0 km/h (0 Bft) W -2,2 C 0,2 C 0,0 km/h (0 Bft)
20.01.2023 12:00 1,2 C 84 % 1013,5 hPa 0,0 l/m 2,5 km/h (1 Bft) W -1,2 C 1,2 C 3,6 km/h (1 Bft)
20.01.2023 13:00 2,5 C 81 % 1013,3 hPa 0,0 l/m 5,0 km/h (1 Bft) W -0,4 C 2,5 C 6,1 km/h (2 Bft)
20.01.2023 14:00 2,5 C 80 % 1013,3 hPa 0,0 l/m 3,6 km/h (1 Bft) W -0,6 C 2,5 C 3,6 km/h (1 Bft)
20.01.2023 15:00 2,6 C 77 % 1013,6 hPa 0,0 l/m 6,1 km/h (2 Bft) W-SW -1,0 C 2,6 C 7,2 km/h (2 Bft)
20.01.2023 16:00 2,1 C 76 % 1014,0 hPa 0,0 l/m 3,6 km/h (1 Bft) S -1,7 C 2,1 C 6,1 km/h (2 Bft)
20.01.2023 17:00 1,2 C 81 % 1014,5 hPa 0,0 l/m 2,5 km/h (1 Bft) N -1,7 C 1,2 C 3,6 km/h (1 Bft)
20.01.2023 18:00 -0,7 C 88 % 1014,7 hPa 0,0 l/m 0,0 km/h (0 Bft) N -2,4 C -0,7 C 2,5 km/h (1 Bft)
20.01.2023 19:00 -1,1 C 91 % 1015,3 hPa 0,0 l/m 0,0 km/h (0 Bft) N -2,4 C -1,1 C 0,0 km/h (0 Bft)
20.01.2023 20:00 -2,1 C 92 % 1015,6 hPa 0,0 l/m 0,0 km/h (0 Bft) SO -3,2 C -2,1 C 0,0 km/h (0 Bft)
20.01.2023 21:00 -2,0 C 91 % 1015,2 hPa 0,0 l/m 2,5 km/h (1 Bft) N -3,3 C -2,0 C 3,6 km/h (1 Bft)
20.01.2023 22:00 -1,6 C 92 % 1015,5 hPa 0,0 l/m 0,0 km/h (0 Bft) N -2,7 C -1,6 C 0,0 km/h (0 Bft)
20.01.2023 23:00 -2,0 C 93 % 1015,7 hPa 0,0 l/m 0,0 km/h (0 Bft) N -3,0 C -2,0 C 2,5 km/h (1 Bft)
21.01.2023 00:00 -2,8 C 90 % 1015,9 hPa 0,0 l/m 0,0 km/h (0 Bft) SO -4,2 C -2,8 C 0,0 km/h (0 Bft)
21.01.2023 01:00 -3,2 C 90 % 1015,7 hPa 0,0 l/m 1,1 km/h (1 Bft) O-SO -4,6 C -3,2 C 3,6 km/h (1 Bft)
21.01.2023 02:00 -3,5 C 90 % 1016,0 hPa 0,0 l/m 1,1 km/h (1 Bft) SO -4,9 C -3,5 C 3,6 km/h (1 Bft)
21.01.2023 03:00 -3,7 C 89 % 1016,1 hPa 0,0 l/m 1,1 km/h (1 Bft) O-SO -5,2 C -3,7 C 2,5 km/h (1 Bft)
21.01.2023 04:00 -3,8 C 88 % 1016,4 hPa 0,0 l/m 2,5 km/h (1 Bft) SO -5,5 C -3,8 C 7,2 km/h (2 Bft)
21.01.2023 05:00 -4,0 C 88 % 1016,4 hPa 0,0 l/m 5,0 km/h (1 Bft) O-SO -5,7 C -4,0 C 9,7 km/h (2 Bft)
21.01.2023 06:00 -3,8 C 86 % 1017,0 hPa 0,0 l/m 5,0 km/h (1 Bft) SO -5,8 C -3,8 C 9,7 km/h (2 Bft)
21.01.2023 07:00 -4,2 C 87 % 1017,5 hPa 0,0 l/m 3,6 km/h (1 Bft) SO -6,0 C -4,2 C 9,7 km/h (2 Bft)
21.01.2023 08:00 -4,2 C 86 % 1018,2 hPa 0,0 l/m 5,0 km/h (1 Bft) O -6,2 C -4,2 C 11,2 km/h (2 Bft)
21.01.2023 09:00 -3,4 C 85 % 1018,7 hPa 0,0 l/m 1,1 km/h (1 Bft) SO -5,5 C -3,4 C 3,6 km/h (1 Bft)
21.01.2023 10:00 -1,0 C 79 % 1019,0 hPa 0,0 l/m 2,5 km/h (1 Bft) SW -4,2 C -1,0 C 6,1 km/h (2 Bft)
21.01.2023 11:00 0,4 C 75 % 1019,3 hPa 0,0 l/m 3,6 km/h (1 Bft) N-NO -3,5 C 0,4 C 6,1 km/h (2 Bft)
21.01.2023 12:00 0,9 C 72 % 1018,9 hPa 0,0 l/m 7,2 km/h (2 Bft) NO -3,6 C 0,1 C 9,7 km/h (2 Bft)
21.01.2023 13:00 1,5 C 70 % 1018,5 hPa 0,0 l/m 3,6 km/h (1 Bft) O-NO -3,4 C 1,5 C 6,1 km/h (2 Bft)
21.01.2023 14:00 0,9 C 74 % 1018,9 hPa 0,0 l/m 2,5 km/h (1 Bft) O-NO -3,2 C 0,9 C 6,1 km/h (2 Bft)
21.01.2023 15:00 0,8 C 74 % 1019,3 hPa 0,0 l/m 5,0 km/h (1 Bft) NO -3,3 C 0,8 C 7,2 km/h (2 Bft)
21.01.2023 16:00 0,3 C 78 % 1019,7 hPa 0,0 l/m 2,5 km/h (1 Bft) N -3,1 C 0,3 C 3,6 km/h (1 Bft)
21.01.2023 17:00 -0,3 C 85 % 1020,3 hPa 0,0 l/m 2,5 km/h (1 Bft) N-NO -2,5 C -0,3 C 3,6 km/h (1 Bft)
21.01.2023 18:00 -0,7 C 87 % 1020,6 hPa 0,0 l/m 5,0 km/h (1 Bft) NO -2,6 C -0,7 C 6,1 km/h (2 Bft)
21.01.2023 19:00 -0,7 C 87 % 1020,9 hPa 0,0 l/m 3,6 km/h (1 Bft) NO -2,6 C -0,7 C 7,2 km/h (2 Bft)
21.01.2023 20:00 -0,7 C 87 % 1020,9 hPa 0,0 l/m 5,0 km/h (1 Bft) N-NO -2,6 C -0,7 C 7,2 km/h (2 Bft)
21.01.2023 21:00 -0,6 C 87 % 1021,1 hPa 0,0 l/m 5,0 km/h (1 Bft) N-NO -2,5 C -0,6 C 9,7 km/h (2 Bft)
21.01.2023 22:00 -0,7 C 88 % 1020,9 hPa 0,0 l/m 3,6 km/h (1 Bft) N-NO -2,4 C -0,7 C 7,2 km/h (2 Bft)
21.01.2023 23:00 -0,8 C 89 % 1021,1 hPa 0,0 l/m 6,1 km/h (2 Bft) NO -2,4 C -0,8 C 9,7 km/h (2 Bft)
22.01.2023 00:00 -0,9 C 89 % 1020,6 hPa 0,0 l/m 1,1 km/h (1 Bft) NO -2,5 C -0,9 C 2,5 km/h (1 Bft)
22.01.2023 01:00 -0,8 C 88 % 1020,8 hPa 0,0 l/m 0,0 km/h (0 Bft) N -2,5 C -0,8 C 2,5 km/h (1 Bft)
22.01.2023 02:00 -1,0 C 89 % 1020,3 hPa 0,0 l/m 0,0 km/h (0 Bft) N-NO -2,6 C -1,0 C 0,0 km/h (0 Bft)
22.01.2023 03:00 -1,2 C 93 % 1020,3 hPa 0,0 l/m 1,1 km/h (1 Bft) N -2,2 C -1,2 C 2,5 km/h (1 Bft)
22.01.2023 04:00 -1,1 C 90 % 1020,0 hPa 0,0 l/m 0,0 km/h (0 Bft) N -2,5 C -1,1 C 0,0 km/h (0 Bft)
22.01.2023 05:00 -1,0 C 93 % 1020,0 hPa 0,0 l/m 0,0 km/h (0 Bft) N -2,0 C -1,0 C 2,5 km/h (1 Bft)
22.01.2023 06:00 -0,9 C 93 % 1020,3 hPa 0,0 l/m 0,0 km/h (0 Bft) N -1,9 C -0,9 C 0,0 km/h (0 Bft)
22.01.2023 07:00 -1,0 C 96 % 1020,7 hPa 0,0 l/m 0,0 km/h (0 Bft) N -1,6 C -1,0 C 2,5 km/h (1 Bft)
22.01.2023 08:00 -0,9 C 95 % 1020,9 hPa 0,0 l/m 0,0 km/h (0 Bft) N -1,6 C -0,9 C 2,5 km/h (1 Bft)
22.01.2023 09:00 -0,3 C 94 % 1021,3 hPa 0,0 l/m 0,0 km/h (0 Bft) N -1,1 C -0,3 C 0,0 km/h (0 Bft)
22.01.2023 10:00 -0,4 C 93 % 1021,4 hPa 0,0 l/m 0,0 km/h (0 Bft) N -1,4 C -0,4 C 2,5 km/h (1 Bft)
22.01.2023 11:00 0,7 C 88 % 1021,4 hPa 0,0 l/m 1,1 km/h (1 Bft) N -1,1 C 0,7 C 2,5 km/h (1 Bft)
22.01.2023 12:00 1,3 C 86 % 1021,5 hPa 0,0 l/m 2,5 km/h (1 Bft) N -0,8 C 1,3 C 3,6 km/h (1 Bft)
22.01.2023 13:00 1,9 C 82 % 1021,3 hPa 0,0 l/m 2,5 km/h (1 Bft) N-NO -0,8 C 1,9 C 6,1 km/h (2 Bft)
22.01.2023 14:00 2,0 C 83 % 1021,4 hPa 0,0 l/m 1,1 km/h (1 Bft) N -0,6 C 2,0 C 3,6 km/h (1 Bft)
22.01.2023 15:00 1,7 C 84 % 1021,8 hPa 0,0 l/m 0,0 km/h (0 Bft) N -0,7 C 1,7 C 0,0 km/h (0 Bft)
22.01.2023 16:00 1,6 C 83 % 1022,3 hPa 0,0 l/m 1,1 km/h (1 Bft) N -1,0 C 1,6 C 2,5 km/h (1 Bft)
22.01.2023 17:00 0,8 C 90 % 1022,5 hPa 0,0 l/m 1,1 km/h (1 Bft) N -0,6 C 0,8 C 2,5 km/h (1 Bft)
22.01.2023 18:00 0,3 C 93 % 1023,0 hPa 0,0 l/m 0,0 km/h (0 Bft) N -0,7 C 0,3 C 0,0 km/h (0 Bft)
Min-Datum _ 21.01.23 16.01.23 17.01.23 - 17.01.23 - 21.01.23 21.01.23 17.01.23
_ Min-Zeit 07:36 09:35 14:35 - 06:35 - 08:36 07:36 08:35
Minimum _ -4,2 C 51 % 980,7 hPa - 0,0 km/h (0 Bft) - -6,2 C -4,2 C 0,0 km/h (0 Bft)
Max-Datum _ 16.01.23 18.01.23 22.01.23 18.01.23 16.01.23 - 16.01.23 16.01.23 16.01.23
_ Max-Zeit 09:35 04:35 18:36 14:35 15:35 - 16:35 03:35 16:35
Maximum _ 8,2 C 99 % 1023,0 hPa 1,5 l/m 24,5 km/h
W (4 Bft)
- 3,0 C 6,2 C 40,3 km/h
W (6 Bft)
Durchschnitt _ 0,9 C 87 % 1002,7 hPa #5,7 l/m 3,6 km/h (1 Bft) W -1,2 C 0,1 C 6,0 km/h (2 Bft)
www.sexauwetter.de